createdAt,value
2022-12-25T00:01:33.555Z,3.76
2022-12-25T00:04:01.257Z,3.75
2022-12-25T00:06:28.680Z,3.72
2022-12-25T00:08:56.008Z,3.72
2022-12-25T00:11:23.424Z,3.71
2022-12-25T00:13:51.204Z,3.69
2022-12-25T00:16:22.677Z,3.66
2022-12-25T00:18:51.495Z,3.66
2022-12-25T00:21:20.723Z,3.67
2022-12-25T00:23:48.686Z,3.69
2022-12-25T00:26:17.923Z,3.70
2022-12-25T00:28:47.159Z,3.68
2022-12-25T00:31:22.531Z,3.67
2022-12-25T00:33:51.434Z,3.70
2022-12-25T00:36:22.040Z,3.74
2022-12-25T00:38:49.475Z,3.77
2022-12-25T00:41:39.425Z,3.80
2022-12-25T00:44:07.876Z,3.83
2022-12-25T00:46:35.641Z,3.84
2022-12-25T00:49:03.734Z,3.88
2022-12-25T00:51:31.012Z,3.89
2022-12-25T00:53:58.651Z,3.90
2022-12-25T00:56:26.085Z,3.92
2022-12-25T00:58:54.354Z,3.92
2022-12-25T01:01:21.925Z,3.92
2022-12-25T01:03:50.160Z,3.92
2022-12-25T01:06:17.640Z,3.89
2022-12-25T01:09:04.796Z,3.89
2022-12-25T01:11:34.383Z,3.89
2022-12-25T01:14:02.033Z,3.90
2022-12-25T01:16:29.722Z,3.91
2022-12-25T01:18:57.253Z,3.89
2022-12-25T01:21:24.713Z,3.89
2022-12-25T01:23:53.595Z,3.86
2022-12-25T01:26:23.838Z,3.81
2022-12-25T01:28:51.890Z,3.77
2022-12-25T01:31:24.494Z,3.75
2022-12-25T01:33:53.016Z,3.75
2022-12-25T01:36:23.286Z,3.75
2022-12-25T01:38:51.925Z,3.72
2022-12-25T01:41:22.328Z,3.70
2022-12-25T01:44:01.630Z,3.69
2022-12-25T01:46:30.152Z,3.70
2022-12-25T01:49:01.956Z,3.69
2022-12-25T01:51:35.644Z,3.69
2022-12-25T01:54:07.542Z,3.68
2022-12-25T01:56:37.251Z,3.67
2022-12-25T01:59:08.638Z,3.64
2022-12-25T02:01:36.594Z,3.64
2022-12-25T02:04:38.858Z,3.64
2022-12-25T02:07:13.828Z,3.67
2022-12-25T02:09:41.902Z,3.71
2022-12-25T02:12:15.263Z,3.75
2022-12-25T02:14:42.662Z,3.79
2022-12-25T02:17:30.130Z,3.83
2022-12-25T02:20:03.906Z,3.88
2022-12-25T02:23:18.525Z,3.93
2022-12-25T02:26:07.789Z,3.98
2022-12-25T02:28:45.443Z,4.00
2022-12-25T02:31:27.464Z,4.04
2022-12-25T02:34:12.079Z,4.08
2022-12-25T02:36:53.978Z,4.12
2022-12-25T02:39:59.281Z,4.16
2022-12-25T02:42:56.299Z,4.21
2022-12-25T02:46:07.911Z,4.25
2022-12-25T02:49:00.500Z,4.30
2022-12-25T02:51:50.888Z,4.34
2022-12-25T02:54:42.828Z,4.38
2022-12-25T02:57:31.643Z,4.42
2022-12-25T03:00:19.728Z,4.46
2022-12-25T03:03:07.626Z,4.51
2022-12-25T03:05:57.494Z,4.53
2022-12-25T03:08:29.797Z,4.58
2022-12-25T03:11:29.869Z,4.62
2022-12-25T03:14:26.929Z,4.68
2022-12-25T03:16:58.989Z,4.75
2022-12-25T03:19:48.999Z,4.82
2022-12-25T03:22:48.373Z,4.89
2022-12-25T03:25:35.922Z,4.95
2022-12-25T03:28:03.843Z,4.98
2022-12-25T03:31:12.631Z,5.04
2022-12-25T03:34:20.065Z,5.08
2022-12-25T03:37:20.851Z,5.12
2022-12-25T03:40:30.631Z,5.18
2022-12-25T03:43:25.772Z,5.22
2022-12-25T03:46:17.866Z,5.24
2022-12-25T03:49:08.731Z,5.25
2022-12-25T03:51:55.949Z,5.28
2022-12-25T03:54:46.636Z,5.28
2022-12-25T03:57:49.634Z,5.28
2022-12-25T04:00:35.680Z,5.27
2022-12-25T04:03:38.536Z,5.24
2022-12-25T04:06:24.899Z,5.21
2022-12-25T04:09:10.604Z,5.18
2022-12-25T04:12:02.165Z,5.19
2022-12-25T04:14:48.816Z,5.22
2022-12-25T04:17:54.587Z,5.24
2022-12-25T04:20:40.936Z,5.27
2022-12-25T04:23:27.065Z,5.30
2022-12-25T04:26:15.633Z,5.35
2022-12-25T04:29:01.826Z,5.38
2022-12-25T04:31:47.417Z,5.41
2022-12-25T04:34:33.067Z,5.45
2022-12-25T04:37:00.331Z,5.47
2022-12-25T04:39:27.575Z,5.49
2022-12-25T04:41:54.815Z,5.52
2022-12-25T04:44:22.223Z,5.56
2022-12-25T04:46:51.145Z,5.56
2022-12-25T04:49:24.544Z,5.57
2022-12-25T04:51:51.884Z,5.57
2022-12-25T04:54:19.265Z,5.58
2022-12-25T04:56:46.617Z,5.60
2022-12-25T04:59:14.096Z,5.58
2022-12-25T05:01:41.482Z,5.59
2022-12-25T05:04:08.836Z,5.59
2022-12-25T05:06:37.219Z,5.59
2022-12-25T05:09:04.633Z,5.61
2022-12-25T05:11:31.995Z,5.62
2022-12-25T05:14:00.221Z,5.66
2022-12-25T05:16:28.099Z,5.69
2022-12-25T05:18:55.499Z,5.71
2022-12-25T05:21:23.348Z,5.74
2022-12-25T05:23:54.140Z,5.76
2022-12-25T05:26:23.083Z,5.81
2022-12-25T05:28:50.728Z,5.83
2022-12-25T05:31:18.958Z,5.87
2022-12-25T05:33:50.343Z,5.90
2022-12-25T05:36:17.893Z,5.93
2022-12-25T05:38:45.319Z,5.97
2022-12-25T05:41:12.732Z,6.02
2022-12-25T05:43:39.980Z,6.07
2022-12-25T05:46:09.281Z,6.10
2022-12-25T05:48:37.895Z,6.12
2022-12-25T05:51:10.516Z,6.13
2022-12-25T05:53:38.591Z,6.15
2022-12-25T05:56:09.264Z,6.16
2022-12-25T05:58:38.448Z,6.18
2022-12-25T06:01:23.241Z,6.20
2022-12-25T06:03:51.210Z,6.22
2022-12-25T06:06:19.176Z,6.24
2022-12-25T06:08:46.584Z,6.27
2022-12-25T06:11:15.019Z,6.29
2022-12-25T06:13:42.551Z,6.33
2022-12-25T06:16:13.411Z,6.36
2022-12-25T06:18:44.644Z,6.38
2022-12-25T06:21:14.463Z,6.40
2022-12-25T06:23:42.830Z,6.41
2022-12-25T06:26:14.389Z,6.43
2022-12-25T06:28:43.454Z,6.45
2022-12-25T06:31:19.305Z,6.47
2022-12-25T06:33:47.208Z,6.47
2022-12-25T06:36:17.500Z,6.49
2022-12-25T06:38:45.185Z,6.50
2022-12-25T06:41:15.727Z,6.51
2022-12-25T06:43:43.040Z,6.52
2022-12-25T06:46:12.390Z,6.53
2022-12-25T06:48:41.363Z,6.56
2022-12-25T06:51:08.609Z,6.57
2022-12-25T06:53:40.243Z,6.59
2022-12-25T06:56:10.545Z,6.62
2022-12-25T06:58:37.811Z,6.63
2022-12-25T07:01:24.398Z,6.64
2022-12-25T07:03:55.277Z,6.66
2022-12-25T07:06:22.461Z,6.69
2022-12-25T07:08:49.902Z,6.69
2022-12-25T07:11:17.902Z,6.71
2022-12-25T07:13:45.400Z,6.72
2022-12-25T07:16:13.284Z,6.73
2022-12-25T07:18:41.421Z,6.73
2022-12-25T07:21:11.861Z,6.74
2022-12-25T07:23:39.377Z,6.74
2022-12-25T07:26:07.095Z,6.74
2022-12-25T07:28:35.186Z,6.74
2022-12-25T07:31:08.433Z,6.76
2022-12-25T07:33:36.396Z,6.75
2022-12-25T07:36:05.553Z,6.75
2022-12-25T07:38:32.933Z,6.75
2022-12-25T07:41:00.696Z,6.75
2022-12-25T07:43:28.234Z,6.76
2022-12-25T07:45:57.888Z,6.77
2022-12-25T07:48:29.021Z,6.79
2022-12-25T07:51:05.128Z,6.80
2022-12-25T07:53:33.168Z,6.81
2022-12-25T07:56:02.419Z,6.83
2022-12-25T07:58:30.660Z,6.85
2022-12-25T08:01:06.409Z,6.87
2022-12-25T08:03:35.549Z,6.90
2022-12-25T08:06:05.551Z,6.92
2022-12-25T08:08:33.962Z,6.92
2022-12-25T08:11:01.266Z,6.95
2022-12-25T08:13:32.495Z,6.97
2022-12-25T08:16:05.537Z,6.99
2022-12-25T08:18:32.796Z,7.01
2022-12-25T08:21:05.294Z,7.02
2022-12-25T08:23:35.435Z,7.05
2022-12-25T08:26:05.591Z,7.05
2022-12-25T08:28:33.649Z,7.08
2022-12-25T08:31:21.000Z,7.10
2022-12-25T08:33:49.979Z,7.11
2022-12-25T08:36:18.562Z,7.13
2022-12-25T08:38:46.266Z,7.13
2022-12-25T08:41:14.911Z,7.15
2022-12-25T08:43:43.160Z,7.16
2022-12-25T08:46:11.058Z,7.17
2022-12-25T08:48:38.698Z,7.18
2022-12-25T08:51:11.305Z,7.18
2022-12-25T08:53:38.747Z,7.17
2022-12-25T08:56:06.421Z,7.18
2022-12-25T08:58:34.598Z,7.18
2022-12-25T09:01:02.026Z,7.18
2022-12-25T09:03:32.248Z,7.18
2022-12-25T09:06:05.512Z,7.19
2022-12-25T09:08:33.576Z,7.19
2022-12-25T09:11:05.991Z,7.20
2022-12-25T09:13:33.936Z,7.21
2022-12-25T09:16:06.239Z,7.21
2022-12-25T09:18:34.682Z,7.24
2022-12-25T09:21:04.663Z,7.23
2022-12-25T09:23:33.591Z,7.25
2022-12-25T09:26:06.717Z,7.26
2022-12-25T09:28:34.451Z,7.27
2022-12-25T09:31:02.596Z,7.28
2022-12-25T09:33:29.969Z,7.28
2022-12-25T09:35:59.601Z,7.29
2022-12-25T09:38:29.251Z,7.29
2022-12-25T09:41:09.318Z,7.31
2022-12-25T09:43:47.203Z,7.30
2022-12-25T09:46:20.475Z,7.31
2022-12-25T09:49:21.116Z,7.32
2022-12-25T09:51:54.992Z,7.33
2022-12-25T09:54:34.291Z,7.34
2022-12-25T09:57:01.941Z,7.35
2022-12-25T09:59:29.390Z,7.36
2022-12-25T10:02:15.414Z,7.38
2022-12-25T10:04:54.854Z,7.38
2022-12-25T10:08:02.202Z,7.39
2022-12-25T10:10:47.290Z,7.40
2022-12-25T10:13:26.904Z,7.40
2022-12-25T10:16:16.130Z,7.40
2022-12-25T10:18:53.753Z,7.40
2022-12-25T10:21:23.641Z,7.39
2022-12-25T10:24:13.338Z,7.40
2022-12-25T10:26:41.039Z,7.39
2022-12-25T10:29:15.387Z,7.41
2022-12-25T10:31:46.880Z,7.41
2022-12-25T10:34:16.161Z,7.42
2022-12-25T10:36:47.360Z,7.45
2022-12-25T10:39:19.864Z,7.46
2022-12-25T10:42:10.755Z,7.47
2022-12-25T10:44:38.242Z,7.48
2022-12-25T10:47:14.992Z,7.48
2022-12-25T10:49:49.825Z,7.50
2022-12-25T10:52:28.427Z,7.51
2022-12-25T10:54:58.025Z,7.51
2022-12-25T10:57:29.336Z,7.54
2022-12-25T10:59:59.564Z,7.56
2022-12-25T11:02:47.751Z,7.58
2022-12-25T11:05:31.322Z,7.60
2022-12-25T11:08:02.222Z,7.61
2022-12-25T11:10:41.471Z,7.62
2022-12-25T11:13:33.961Z,7.65
2022-12-25T11:16:15.472Z,7.65
2022-12-25T11:19:02.915Z,7.68
2022-12-25T11:21:34.576Z,7.69
2022-12-25T11:24:05.132Z,7.72
2022-12-25T11:27:03.097Z,7.75
2022-12-25T11:30:21.291Z,7.80
2022-12-25T11:32:57.167Z,7.85
2022-12-25T11:35:33.309Z,7.89
2022-12-25T11:38:06.010Z,7.93
2022-12-25T11:41:00.456Z,7.94
2022-12-25T11:44:06.167Z,7.95
2022-12-25T11:46:53.901Z,7.97
2022-12-25T11:49:40.171Z,7.96
2022-12-25T11:52:19.349Z,7.98
2022-12-25T11:55:46.481Z,8.00
2022-12-25T11:58:37.074Z,8.00
2022-12-25T12:01:26.697Z,8.01
2022-12-25T12:07:03.825Z,8.02
2022-12-25T12:10:09.924Z,8.02
2022-12-25T12:13:15.188Z,8.02
2022-12-25T12:15:57.524Z,8.02
2022-12-25T12:18:51.956Z,8.02
2022-12-25T12:21:29.256Z,8.02
2022-12-25T12:24:09.414Z,8.04
2022-12-25T12:26:41.094Z,8.04
2022-12-25T12:29:27.461Z,8.03
2022-12-25T12:32:00.230Z,8.03
2022-12-25T12:34:42.390Z,8.02
2022-12-25T12:37:35.829Z,8.00
2022-12-25T12:40:11.240Z,8.00
2022-12-25T12:42:50.958Z,8.00
2022-12-25T12:45:28.303Z,8.00
2022-12-25T12:47:57.053Z,8.01
2022-12-25T12:50:45.545Z,8.03
2022-12-25T12:53:30.140Z,8.04
2022-12-25T12:56:32.254Z,8.05
2022-12-25T12:59:10.348Z,8.06
2022-12-25T13:01:48.158Z,8.06
2022-12-25T13:04:25.703Z,8.08
2022-12-25T13:06:55.695Z,8.11
2022-12-25T13:10:15.605Z,8.12
2022-12-25T13:13:00.581Z,8.12
2022-12-25T13:15:34.141Z,8.13
2022-12-25T13:18:11.091Z,8.14
2022-12-25T13:20:58.884Z,8.14
2022-12-25T13:23:45.337Z,8.14
2022-12-25T13:26:17.420Z,8.13
2022-12-25T13:28:49.777Z,8.14
2022-12-25T13:31:37.333Z,8.13
2022-12-25T13:34:18.375Z,8.11
2022-12-25T13:36:48.466Z,8.10
2022-12-25T13:39:19.987Z,8.09
2022-12-25T13:42:08.355Z,8.09
2022-12-25T13:45:09.156Z,8.08
2022-12-25T13:47:49.937Z,8.07
2022-12-25T13:50:25.256Z,8.05
2022-12-25T13:53:02.120Z,8.05
2022-12-25T13:55:33.902Z,8.04
2022-12-25T13:58:39.766Z,8.02
2022-12-25T14:01:07.600Z,8.03
2022-12-25T14:03:40.097Z,8.01
2022-12-25T14:06:20.763Z,8.01
2022-12-25T14:08:48.923Z,8.00
2022-12-25T14:11:20.586Z,7.99
2022-12-25T14:13:51.316Z,7.98
2022-12-25T14:16:20.902Z,7.97
2022-12-25T14:19:01.083Z,7.97
2022-12-25T14:21:41.805Z,7.96
2022-12-25T14:24:16.780Z,7.95
2022-12-25T14:26:46.066Z,7.93
2022-12-25T14:29:28.488Z,7.92
2022-12-25T14:32:08.385Z,7.91
2022-12-25T14:34:37.925Z,7.90
2022-12-25T14:37:23.386Z,7.89
2022-12-25T14:40:03.131Z,7.89
2022-12-25T14:42:33.418Z,7.89
2022-12-25T14:45:06.599Z,7.88
2022-12-25T14:47:53.949Z,7.87
2022-12-25T14:50:41.210Z,7.86
2022-12-25T14:53:24.957Z,7.86
2022-12-25T14:55:55.864Z,7.85
2022-12-25T14:58:54.454Z,7.85
2022-12-25T15:01:45.633Z,7.84
2022-12-25T15:04:18.352Z,7.83
2022-12-25T15:07:12.086Z,7.83
2022-12-25T15:09:40.651Z,7.82
2022-12-25T15:12:09.576Z,7.82
2022-12-25T15:14:42.538Z,7.83
2022-12-25T15:17:24.086Z,7.82
2022-12-25T15:19:55.952Z,7.81
2022-12-25T15:22:54.008Z,7.81
2022-12-25T15:25:22.198Z,7.80
2022-12-25T15:27:50.198Z,7.80
2022-12-25T15:30:23.856Z,7.79
2022-12-25T15:33:06.010Z,7.79
2022-12-25T15:35:36.515Z,7.79
2022-12-25T15:38:03.875Z,7.79
2022-12-25T15:40:31.209Z,7.78
2022-12-25T15:42:59.979Z,7.78
2022-12-25T15:45:33.170Z,7.79
2022-12-25T15:48:11.148Z,7.80
2022-12-25T15:50:40.434Z,7.78
2022-12-25T15:53:12.909Z,7.78
2022-12-25T15:55:40.437Z,7.78
2022-12-25T15:58:13.421Z,7.77
2022-12-25T16:00:43.371Z,7.78
2022-12-25T16:03:19.101Z,7.77
2022-12-25T16:05:46.636Z,7.76
2022-12-25T16:08:15.415Z,7.76
2022-12-25T16:10:52.819Z,7.75
2022-12-25T16:13:28.539Z,7.75
2022-12-25T16:16:00.462Z,7.75
2022-12-25T16:18:35.279Z,7.74
2022-12-25T16:21:03.608Z,7.75
2022-12-25T16:23:32.056Z,7.74
2022-12-25T16:26:02.120Z,7.75
2022-12-25T16:28:33.281Z,7.73
2022-12-25T16:31:01.003Z,7.72
2022-12-25T16:33:34.610Z,7.72
2022-12-25T16:36:29.139Z,7.71
2022-12-25T16:39:04.594Z,7.70
2022-12-25T16:41:46.222Z,7.70
2022-12-25T16:44:14.750Z,7.69
2022-12-25T16:46:44.083Z,7.68
2022-12-25T16:49:20.011Z,7.67
2022-12-25T16:51:48.113Z,7.67
2022-12-25T16:54:15.554Z,7.66
2022-12-25T16:56:44.541Z,7.67
2022-12-25T16:59:20.959Z,7.66
2022-12-25T17:01:51.368Z,7.67
2022-12-25T17:04:22.205Z,7.66
2022-12-25T17:06:52.083Z,7.65
2022-12-25T17:09:23.120Z,7.66
2022-12-25T17:11:51.763Z,7.64
2022-12-25T17:14:20.454Z,7.64
2022-12-25T17:16:49.418Z,7.64
2022-12-25T17:19:31.610Z,7.63
2022-12-25T17:22:00.276Z,7.61
2022-12-25T17:24:29.305Z,7.59
2022-12-25T17:27:00.057Z,7.59
2022-12-25T17:29:28.146Z,7.59
2022-12-25T17:31:55.946Z,7.59
2022-12-25T17:34:23.466Z,7.59
2022-12-25T17:36:51.490Z,7.59
2022-12-25T17:39:19.100Z,7.59
2022-12-25T17:41:48.648Z,7.59
2022-12-25T17:44:16.795Z,7.60
2022-12-25T17:46:45.594Z,7.60
2022-12-25T17:49:19.163Z,7.61
2022-12-25T17:51:47.401Z,7.61
2022-12-25T17:54:14.811Z,7.61
2022-12-25T17:56:42.532Z,7.59
2022-12-25T17:59:18.227Z,7.60
2022-12-25T18:01:50.177Z,7.59
2022-12-25T18:04:21.294Z,7.58
2022-12-25T18:06:49.761Z,7.57
2022-12-25T18:09:19.931Z,7.54
2022-12-25T18:11:55.063Z,7.50
2022-12-25T18:14:23.285Z,7.47
2022-12-25T18:16:53.708Z,7.46
2022-12-25T18:19:29.665Z,7.41
2022-12-25T18:21:57.749Z,7.39
2022-12-25T18:24:26.199Z,7.36
2022-12-25T18:26:53.641Z,7.33
2022-12-25T18:29:22.037Z,7.31
2022-12-25T18:31:50.856Z,7.30
2022-12-25T18:34:18.864Z,7.29
2022-12-25T18:36:54.395Z,7.28
2022-12-25T18:39:24.385Z,7.28
2022-12-25T18:42:10.174Z,7.28
2022-12-25T18:44:41.077Z,7.27
2022-12-25T18:47:10.916Z,7.27
2022-12-25T18:49:39.702Z,7.28
2022-12-25T18:52:49.713Z,7.27
2022-12-25T18:55:00.908Z,7.26
2022-12-25T18:57:34.372Z,7.25
2022-12-25T19:00:06.170Z,7.23
2022-12-25T19:02:37.371Z,7.23
2022-12-25T19:07:50.603Z,7.26
2022-12-25T19:10:18.071Z,7.27
2022-12-25T19:12:45.425Z,7.29
2022-12-25T19:15:13.522Z,7.28
2022-12-25T19:17:40.905Z,7.29
2022-12-25T19:20:08.874Z,7.30
2022-12-25T19:22:36.165Z,7.29
2022-12-25T19:25:04.043Z,7.29
2022-12-25T19:27:31.485Z,7.29
2022-12-25T19:29:59.288Z,7.29
2022-12-25T19:32:26.546Z,7.29
2022-12-25T19:34:53.993Z,7.29
2022-12-25T19:37:21.344Z,7.27
2022-12-25T19:39:50.349Z,7.27
2022-12-25T19:42:19.037Z,7.27
2022-12-25T19:44:46.660Z,7.27
2022-12-25T19:47:14.132Z,7.28
2022-12-25T19:49:43.727Z,7.28
2022-12-25T19:52:12.955Z,7.28
2022-12-25T19:54:40.156Z,7.28
2022-12-25T19:57:07.528Z,7.29
2022-12-25T19:59:35.092Z,7.29
2022-12-25T20:02:02.482Z,7.28
2022-12-25T20:04:29.858Z,7.30
2022-12-25T20:06:57.461Z,7.29
2022-12-25T20:09:24.868Z,7.29
2022-12-25T20:11:52.155Z,7.29
2022-12-25T20:14:19.808Z,7.28
2022-12-25T20:16:47.284Z,7.27
2022-12-25T20:19:15.292Z,7.27
2022-12-25T20:21:42.704Z,7.27
2022-12-25T20:24:11.451Z,7.26
2022-12-25T20:26:39.597Z,7.27
2022-12-25T20:29:07.179Z,7.26
2022-12-25T20:31:35.734Z,7.26
2022-12-25T20:34:08.469Z,7.28
2022-12-25T20:36:38.084Z,7.27
2022-12-25T20:39:09.857Z,7.28
2022-12-25T20:41:38.605Z,7.29
2022-12-25T20:44:08.492Z,7.29
2022-12-25T20:46:37.533Z,7.28
2022-12-25T20:49:05.495Z,7.28
2022-12-25T20:51:32.831Z,7.27
2022-12-25T20:54:01.347Z,7.29
2022-12-25T20:56:30.369Z,7.27
2022-12-25T20:58:59.663Z,7.27
2022-12-25T21:01:28.694Z,7.27
2022-12-25T21:03:56.571Z,7.28
2022-12-25T21:06:24.073Z,7.27
2022-12-25T21:08:52.813Z,7.29
2022-12-25T21:11:21.439Z,7.29
2022-12-25T21:13:49.724Z,7.28
2022-12-25T21:16:20.186Z,7.27
2022-12-25T21:18:48.926Z,7.27
2022-12-25T21:21:16.367Z,7.27
2022-12-25T21:23:44.457Z,7.27
2022-12-25T21:26:32.025Z,7.28
2022-12-25T21:29:02.005Z,7.26
2022-12-25T21:31:30.753Z,7.27
2022-12-25T21:34:05.976Z,7.26
2022-12-25T21:36:34.816Z,7.26
2022-12-25T21:39:08.848Z,7.27
2022-12-25T21:41:39.941Z,7.26
2022-12-25T21:44:08.065Z,7.26
2022-12-25T21:46:35.471Z,7.26
2022-12-25T21:49:03.051Z,7.27
2022-12-25T21:51:53.577Z,7.26
2022-12-25T21:54:22.328Z,7.26
2022-12-25T21:56:50.420Z,7.26
2022-12-25T21:59:22.077Z,7.26
2022-12-25T22:01:51.428Z,7.27
2022-12-25T22:04:21.727Z,7.26
2022-12-25T22:07:10.104Z,7.26
2022-12-25T22:09:38.099Z,7.27
2022-12-25T22:12:30.112Z,7.25
2022-12-25T22:15:07.076Z,7.26
2022-12-25T22:17:59.769Z,7.25
2022-12-25T22:20:40.070Z,7.25
2022-12-25T22:23:07.818Z,7.25
2022-12-25T22:25:35.333Z,7.24
2022-12-25T22:28:03.634Z,7.25
2022-12-25T22:30:32.315Z,7.25
2022-12-25T22:33:02.896Z,7.26
2022-12-25T22:35:36.530Z,7.27
2022-12-25T22:38:03.883Z,7.29
2022-12-25T22:40:31.320Z,7.29
2022-12-25T22:42:58.704Z,7.28
2022-12-25T22:45:29.310Z,7.29
2022-12-25T22:47:59.363Z,7.28
2022-12-25T22:50:27.138Z,7.29
2022-12-25T22:52:54.630Z,7.28
2022-12-25T22:55:22.072Z,7.28
2022-12-25T22:57:49.500Z,7.28
2022-12-25T23:00:16.890Z,7.28
2022-12-25T23:02:44.432Z,7.27
2022-12-25T23:05:12.487Z,7.27
2022-12-25T23:07:40.662Z,7.27
2022-12-25T23:10:09.027Z,7.27
2022-12-25T23:12:54.976Z,7.27
2022-12-25T23:15:22.431Z,7.26
2022-12-25T23:18:08.433Z,7.27
2022-12-25T23:20:55.343Z,7.26
2022-12-25T23:23:42.365Z,7.25
2022-12-25T23:26:10.425Z,7.25
2022-12-25T23:28:59.638Z,7.24
2022-12-25T23:31:30.850Z,7.26
2022-12-25T23:33:58.683Z,7.25
2022-12-25T23:36:26.582Z,7.26
2022-12-25T23:38:55.344Z,7.24
2022-12-25T23:41:22.945Z,7.25
2022-12-25T23:43:50.489Z,7.25
2022-12-25T23:46:17.776Z,7.23
2022-12-25T23:48:53.202Z,7.23
2022-12-25T23:51:20.665Z,7.24
2022-12-25T23:53:48.569Z,7.22
2022-12-25T23:56:15.994Z,7.23
2022-12-25T23:58:49.430Z,7.23
